sensor_id;sensor_type;location;lat;lon;timestamp;temperature;humidity
51500;DHT22;39101;53.478;6.158;2023-02-22T00:01:15;7.80;99.90
51500;DHT22;39101;53.478;6.158;2023-02-22T00:03:54;7.80;99.90
51500;DHT22;39101;53.478;6.158;2023-02-22T00:06:21;7.80;99.90
51500;DHT22;39101;53.478;6.158;2023-02-22T00:08:51;7.80;99.90
51500;DHT22;39101;53.478;6.158;2023-02-22T00:11:18;7.70;99.90
51500;DHT22;39101;53.478;6.158;2023-02-22T00:14:01;7.80;99.90
51500;DHT22;39101;53.478;6.158;2023-02-22T00:16:27;7.80;99.90
51500;DHT22;39101;53.478;6.158;2023-02-22T00:18:55;7.70;99.90
51500;DHT22;39101;53.478;6.158;2023-02-22T00:21:21;7.80;99.90
51500;DHT22;39101;53.478;6.158;2023-02-22T00:23:47;7.70;99.90
51500;DHT22;39101;53.478;6.158;2023-02-22T00:26:19;7.70;99.90
51500;DHT22;39101;53.478;6.158;2023-02-22T00:28:50;7.70;99.90
51500;DHT22;39101;53.478;6.158;2023-02-22T00:31:19;7.70;99.90
51500;DHT22;39101;53.478;6.158;2023-02-22T00:33:45;7.80;99.90
51500;DHT22;39101;53.478;6.158;2023-02-22T00:36:12;7.80;99.90
51500;DHT22;39101;53.478;6.158;2023-02-22T00:38:39;7.70;99.90
51500;DHT22;39101;53.478;6.158;2023-02-22T00:41:04;7.70;99.90
51500;DHT22;39101;53.478;6.158;2023-02-22T00:43:32;7.70;99.90
51500;DHT22;39101;53.478;6.158;2023-02-22T00:48:23;7.70;99.90
51500;DHT22;39101;53.478;6.158;2023-02-22T00:50:50;7.90;99.90
51500;DHT22;39101;53.478;6.158;2023-02-22T00:53:25;7.70;99.90
51500;DHT22;39101;53.478;6.158;2023-02-22T00:55:54;7.70;99.90
51500;DHT22;39101;53.478;6.158;2023-02-22T00:58:21;7.70;99.90
51500;DHT22;39101;53.478;6.158;2023-02-22T01:00:47;7.60;99.90
51500;DHT22;39101;53.478;6.158;2023-02-22T01:03:15;7.60;99.90
51500;DHT22;39101;53.478;6.158;2023-02-22T01:05:43;7.60;99.90
51500;DHT22;39101;53.478;6.158;2023-02-22T01:08:15;7.60;99.90
51500;DHT22;39101;53.478;6.158;2023-02-22T01:10:43;7.60;99.90
51500;DHT22;39101;53.478;6.158;2023-02-22T01:13:09;7.50;99.90
51500;DHT22;39101;53.478;6.158;2023-02-22T01:15:45;7.50;99.90
51500;DHT22;39101;53.478;6.158;2023-02-22T01:18:11;7.50;99.90
51500;DHT22;39101;53.478;6.158;2023-02-22T01:20:38;7.40;99.90
51500;DHT22;39101;53.478;6.158;2023-02-22T01:23:05;7.40;99.90
51500;DHT22;39101;53.478;6.158;2023-02-22T01:25:39;7.40;99.90
51500;DHT22;39101;53.478;6.158;2023-02-22T01:28:06;7.40;99.90
51500;DHT22;39101;53.478;6.158;2023-02-22T01:30:34;7.50;99.90
51500;DHT22;39101;53.478;6.158;2023-02-22T01:33:05;7.40;99.90
51500;DHT22;39101;53.478;6.158;2023-02-22T01:35:35;7.40;99.90
51500;DHT22;39101;53.478;6.158;2023-02-22T01:38:01;7.40;99.90
51500;DHT22;39101;53.478;6.158;2023-02-22T01:40:36;7.50;99.90
51500;DHT22;39101;53.478;6.158;2023-02-22T01:43:26;7.50;99.90
51500;DHT22;39101;53.478;6.158;2023-02-22T01:51:18;7.40;99.90
51500;DHT22;39101;53.478;6.158;2023-02-22T01:54:04;7.50;99.90
51500;DHT22;39101;53.478;6.158;2023-02-22T01:56:34;7.40;99.90
51500;DHT22;39101;53.478;6.158;2023-02-22T01:59:04;7.40;99.90
51500;DHT22;39101;53.478;6.158;2023-02-22T02:01:35;7.40;99.90
51500;DHT22;39101;53.478;6.158;2023-02-22T02:04:07;7.40;99.90
51500;DHT22;39101;53.478;6.158;2023-02-22T02:06:51;7.40;99.90
51500;DHT22;39101;53.478;6.158;2023-02-22T02:09:41;7.50;99.90
51500;DHT22;39101;53.478;6.158;2023-02-22T02:12:07;7.40;99.90
51500;DHT22;39101;53.478;6.158;2023-02-22T02:14:34;7.40;99.90
51500;DHT22;39101;53.478;6.158;2023-02-22T02:17:08;7.50;99.90
51500;DHT22;39101;53.478;6.158;2023-02-22T02:32:54;7.40;99.90
51500;DHT22;39101;53.478;6.158;2023-02-22T02:38:27;7.40;99.90
51500;DHT22;39101;53.478;6.158;2023-02-22T02:43:52;7.40;99.90
51500;DHT22;39101;53.478;6.158;2023-02-22T02:46:24;7.40;99.90
51500;DHT22;39101;53.478;6.158;2023-02-22T02:48:55;7.40;99.90
51500;DHT22;39101;53.478;6.158;2023-02-22T02:51:24;7.40;99.90
51500;DHT22;39101;53.478;6.158;2023-02-22T02:53:53;7.40;99.90
51500;DHT22;39101;53.478;6.158;2023-02-22T02:56:20;7.30;99.90
51500;DHT22;39101;53.478;6.158;2023-02-22T02:58:52;7.40;99.90
51500;DHT22;39101;53.478;6.158;2023-02-22T03:01:46;7.40;99.90
51500;DHT22;39101;53.478;6.158;2023-02-22T03:04:58;7.40;99.90
51500;DHT22;39101;53.478;6.158;2023-02-22T03:10:38;7.30;99.90
51500;DHT22;39101;53.478;6.158;2023-02-22T03:21:43;7.40;99.90
51500;DHT22;39101;53.478;6.158;2023-02-22T03:27:08;7.40;99.90
51500;DHT22;39101;53.478;6.158;2023-02-22T03:29:39;7.30;99.90
51500;DHT22;39101;53.478;6.158;2023-02-22T03:32:11;7.30;99.90
51500;DHT22;39101;53.478;6.158;2023-02-22T03:34:52;7.40;99.90
51500;DHT22;39101;53.478;6.158;2023-02-22T03:37:28;7.30;99.90
51500;DHT22;39101;53.478;6.158;2023-02-22T03:39:59;7.40;99.90
51500;DHT22;39101;53.478;6.158;2023-02-22T03:42:29;7.40;99.90
51500;DHT22;39101;53.478;6.158;2023-02-22T03:44:58;7.30;99.90
51500;DHT22;39101;53.478;6.158;2023-02-22T03:47:34;7.30;99.90
51500;DHT22;39101;53.478;6.158;2023-02-22T03:50:12;7.30;99.90
51500;DHT22;39101;53.478;6.158;2023-02-22T03:52:40;7.30;99.90
51500;DHT22;39101;53.478;6.158;2023-02-22T03:55:08;7.30;99.90
51500;DHT22;39101;53.478;6.158;2023-02-22T03:57:38;7.30;99.90
51500;DHT22;39101;53.478;6.158;2023-02-22T04:00:26;7.30;99.90
51500;DHT22;39101;53.478;6.158;2023-02-22T04:03:12;7.30;99.90
51500;DHT22;39101;53.478;6.158;2023-02-22T04:05:38;7.30;99.90
51500;DHT22;39101;53.478;6.158;2023-02-22T04:08:04;7.30;99.90
51500;DHT22;39101;53.478;6.158;2023-02-22T04:10:31;7.30;99.90
51500;DHT22;39101;53.478;6.158;2023-02-22T04:12:58;7.30;99.90
51500;DHT22;39101;53.478;6.158;2023-02-22T04:15:24;7.30;99.90
51500;DHT22;39101;53.478;6.158;2023-02-22T04:17:51;7.30;99.90
51500;DHT22;39101;53.478;6.158;2023-02-22T04:20:17;7.30;99.90
51500;DHT22;39101;53.478;6.158;2023-02-22T04:22:54;7.30;99.90
51500;DHT22;39101;53.478;6.158;2023-02-22T04:25:21;7.30;99.90
51500;DHT22;39101;53.478;6.158;2023-02-22T04:27:48;7.30;99.90
51500;DHT22;39101;53.478;6.158;2023-02-22T04:30:16;7.30;99.90
51500;DHT22;39101;53.478;6.158;2023-02-22T04:32:44;7.30;99.90
51500;DHT22;39101;53.478;6.158;2023-02-22T04:35:10;7.30;99.90
51500;DHT22;39101;53.478;6.158;2023-02-22T04:37:36;7.20;99.90
51500;DHT22;39101;53.478;6.158;2023-02-22T04:40:02;7.20;99.90
51500;DHT22;39101;53.478;6.158;2023-02-22T04:42:33;7.20;99.90
51500;DHT22;39101;53.478;6.158;2023-02-22T04:45:00;7.30;99.90
51500;DHT22;39101;53.478;6.158;2023-02-22T04:47:26;7.30;99.90
51500;DHT22;39101;53.478;6.158;2023-02-22T04:49:52;7.20;99.90
51500;DHT22;39101;53.478;6.158;2023-02-22T04:52:17;7.20;99.90
51500;DHT22;39101;53.478;6.158;2023-02-22T04:54:43;7.30;99.90
51500;DHT22;39101;53.478;6.158;2023-02-22T04:57:09;7.20;99.90
51500;DHT22;39101;53.478;6.158;2023-02-22T04:59:35;7.30;99.90
51500;DHT22;39101;53.478;6.158;2023-02-22T05:02:01;7.30;99.90
51500;DHT22;39101;53.478;6.158;2023-02-22T05:04:27;7.20;99.90
51500;DHT22;39101;53.478;6.158;2023-02-22T05:06:52;7.20;99.90
51500;DHT22;39101;53.478;6.158;2023-02-22T05:09:18;7.30;99.90
51500;DHT22;39101;53.478;6.158;2023-02-22T05:11:44;7.20;99.90
51500;DHT22;39101;53.478;6.158;2023-02-22T05:14:09;7.20;99.90
51500;DHT22;39101;53.478;6.158;2023-02-22T05:16:35;7.20;99.90
51500;DHT22;39101;53.478;6.158;2023-02-22T05:19:01;7.20;99.90
51500;DHT22;39101;53.478;6.158;2023-02-22T05:21:27;7.20;99.90
51500;DHT22;39101;53.478;6.158;2023-02-22T05:23:56;7.20;99.90
51500;DHT22;39101;53.478;6.158;2023-02-22T05:26:26;7.20;99.90
51500;DHT22;39101;53.478;6.158;2023-02-22T05:28:53;7.20;99.90
51500;DHT22;39101;53.478;6.158;2023-02-22T05:31:19;7.20;99.90
51500;DHT22;39101;53.478;6.158;2023-02-22T05:33:46;7.30;99.90
51500;DHT22;39101;53.478;6.158;2023-02-22T05:36:12;7.20;99.90
51500;DHT22;39101;53.478;6.158;2023-02-22T05:38:39;7.30;99.90
51500;DHT22;39101;53.478;6.158;2023-02-22T05:41:10;7.30;99.90
51500;DHT22;39101;53.478;6.158;2023-02-22T05:43:36;7.20;99.90
51500;DHT22;39101;53.478;6.158;2023-02-22T05:46:04;7.20;99.90
51500;DHT22;39101;53.478;6.158;2023-02-22T05:48:29;7.20;99.90
51500;DHT22;39101;53.478;6.158;2023-02-22T05:50:56;7.20;99.90
51500;DHT22;39101;53.478;6.158;2023-02-22T05:53:25;7.20;99.90
51500;DHT22;39101;53.478;6.158;2023-02-22T05:55:56;7.20;99.90
51500;DHT22;39101;53.478;6.158;2023-02-22T05:58:23;7.20;99.90
51500;DHT22;39101;53.478;6.158;2023-02-22T06:00:49;7.20;99.90
51500;DHT22;39101;53.478;6.158;2023-02-22T06:03:15;7.20;99.90
51500;DHT22;39101;53.478;6.158;2023-02-22T06:05:41;7.30;99.90
51500;DHT22;39101;53.478;6.158;2023-02-22T06:08:07;7.20;99.90
51500;DHT22;39101;53.478;6.158;2023-02-22T06:10:33;7.20;99.90
51500;DHT22;39101;53.478;6.158;2023-02-22T06:13:00;7.10;99.90
51500;DHT22;39101;53.478;6.158;2023-02-22T06:15:31;7.10;99.90
51500;DHT22;39101;53.478;6.158;2023-02-22T06:17:57;7.10;99.90
51500;DHT22;39101;53.478;6.158;2023-02-22T06:20:27;7.20;99.90
51500;DHT22;39101;53.478;6.158;2023-02-22T06:22:54;7.00;99.90
51500;DHT22;39101;53.478;6.158;2023-02-22T06:25:23;7.10;99.90
51500;DHT22;39101;53.478;6.158;2023-02-22T06:27:50;7.10;99.90
51500;DHT22;39101;53.478;6.158;2023-02-22T06:30:18;7.10;99.90
51500;DHT22;39101;53.478;6.158;2023-02-22T06:32:47;7.10;99.90
51500;DHT22;39101;53.478;6.158;2023-02-22T06:35:14;7.10;99.90
51500;DHT22;39101;53.478;6.158;2023-02-22T06:37:42;7.10;99.90
51500;DHT22;39101;53.478;6.158;2023-02-22T06:40:09;7.10;99.90
51500;DHT22;39101;53.478;6.158;2023-02-22T06:42:36;7.10;99.90
51500;DHT22;39101;53.478;6.158;2023-02-22T06:45:02;7.10;99.90
51500;DHT22;39101;53.478;6.158;2023-02-22T06:47:28;7.10;99.90
51500;DHT22;39101;53.478;6.158;2023-02-22T06:49:59;7.20;99.90
51500;DHT22;39101;53.478;6.158;2023-02-22T06:52:25;7.10;99.90
51500;DHT22;39101;53.478;6.158;2023-02-22T06:54:52;7.10;99.90
51500;DHT22;39101;53.478;6.158;2023-02-22T06:57:20;7.10;99.90
51500;DHT22;39101;53.478;6.158;2023-02-22T06:59:47;7.10;99.90
51500;DHT22;39101;53.478;6.158;2023-02-22T07:02:13;7.10;99.90
51500;DHT22;39101;53.478;6.158;2023-02-22T07:04:40;7.10;99.90
51500;DHT22;39101;53.478;6.158;2023-02-22T07:07:06;7.10;99.90
51500;DHT22;39101;53.478;6.158;2023-02-22T07:09:31;7.10;99.90
51500;DHT22;39101;53.478;6.158;2023-02-22T07:11:57;7.00;99.90
51500;DHT22;39101;53.478;6.158;2023-02-22T07:14:23;7.00;99.90
51500;DHT22;39101;53.478;6.158;2023-02-22T07:16:49;7.00;99.90
51500;DHT22;39101;53.478;6.158;2023-02-22T07:19:16;7.10;99.90
51500;DHT22;39101;53.478;6.158;2023-02-22T07:21:42;7.10;99.90
51500;DHT22;39101;53.478;6.158;2023-02-22T07:24:08;7.00;99.90
51500;DHT22;39101;53.478;6.158;2023-02-22T07:26:42;7.00;99.90
51500;DHT22;39101;53.478;6.158;2023-02-22T07:29:08;7.10;99.90
51500;DHT22;39101;53.478;6.158;2023-02-22T07:31:37;7.10;99.90
51500;DHT22;39101;53.478;6.158;2023-02-22T07:34:03;7.10;99.90
51500;DHT22;39101;53.478;6.158;2023-02-22T07:36:28;7.10;99.90
51500;DHT22;39101;53.478;6.158;2023-02-22T07:38:54;7.10;99.90
51500;DHT22;39101;53.478;6.158;2023-02-22T07:41:19;7.20;99.90
51500;DHT22;39101;53.478;6.158;2023-02-22T07:43:47;7.20;99.90
51500;DHT22;39101;53.478;6.158;2023-02-22T07:46:13;7.10;99.90
51500;DHT22;39101;53.478;6.158;2023-02-22T07:48:41;7.20;99.90
51500;DHT22;39101;53.478;6.158;2023-02-22T07:51:08;7.20;99.90
51500;DHT22;39101;53.478;6.158;2023-02-22T07:53:34;7.20;99.90
51500;DHT22;39101;53.478;6.158;2023-02-22T07:56:03;7.20;99.90
51500;DHT22;39101;53.478;6.158;2023-02-22T07:58:31;7.20;99.90
51500;DHT22;39101;53.478;6.158;2023-02-22T08:00:58;7.20;99.90
51500;DHT22;39101;53.478;6.158;2023-02-22T08:03:29;7.20;99.90
51500;DHT22;39101;53.478;6.158;2023-02-22T08:05:56;7.30;99.90
51500;DHT22;39101;53.478;6.158;2023-02-22T08:08:25;7.30;99.90
51500;DHT22;39101;53.478;6.158;2023-02-22T08:10:51;7.30;99.90
51500;DHT22;39101;53.478;6.158;2023-02-22T08:13:17;7.30;99.90
51500;DHT22;39101;53.478;6.158;2023-02-22T08:15:43;7.30;99.90
51500;DHT22;39101;53.478;6.158;2023-02-22T08:18:12;7.30;99.90
51500;DHT22;39101;53.478;6.158;2023-02-22T08:20:40;7.30;99.90
51500;DHT22;39101;53.478;6.158;2023-02-22T08:23:07;7.40;99.90
51500;DHT22;39101;53.478;6.158;2023-02-22T08:25:35;7.40;99.90
51500;DHT22;39101;53.478;6.158;2023-02-22T08:28:06;7.40;99.90
51500;DHT22;39101;53.478;6.158;2023-02-22T08:30:34;7.40;99.90
51500;DHT22;39101;53.478;6.158;2023-02-22T08:33:05;7.30;99.90
51500;DHT22;39101;53.478;6.158;2023-02-22T08:35:31;7.30;99.90
51500;DHT22;39101;53.478;6.158;2023-02-22T08:38:03;7.30;99.90
51500;DHT22;39101;53.478;6.158;2023-02-22T08:40:33;7.30;99.90
51500;DHT22;39101;53.478;6.158;2023-02-22T08:42:59;7.30;99.90
51500;DHT22;39101;53.478;6.158;2023-02-22T08:45:29;7.30;99.90
51500;DHT22;39101;53.478;6.158;2023-02-22T08:47:56;7.30;99.90
51500;DHT22;39101;53.478;6.158;2023-02-22T08:50:25;7.30;99.90
51500;DHT22;39101;53.478;6.158;2023-02-22T08:52:57;7.30;99.90
51500;DHT22;39101;53.478;6.158;2023-02-22T08:55:26;7.40;99.90
51500;DHT22;39101;53.478;6.158;2023-02-22T08:57:51;7.40;99.90
51500;DHT22;39101;53.478;6.158;2023-02-22T09:00:18;7.40;99.90
51500;DHT22;39101;53.478;6.158;2023-02-22T09:02:46;7.40;99.90
51500;DHT22;39101;53.478;6.158;2023-02-22T09:05:12;7.40;99.90
51500;DHT22;39101;53.478;6.158;2023-02-22T09:07:40;7.50;99.90
51500;DHT22;39101;53.478;6.158;2023-02-22T09:10:09;7.50;99.90
51500;DHT22;39101;53.478;6.158;2023-02-22T09:12:35;7.50;99.90
51500;DHT22;39101;53.478;6.158;2023-02-22T09:15:01;7.50;99.90
51500;DHT22;39101;53.478;6.158;2023-02-22T09:17:27;7.50;99.90
51500;DHT22;39101;53.478;6.158;2023-02-22T09:19:54;7.50;99.90
51500;DHT22;39101;53.478;6.158;2023-02-22T09:22:19;7.60;99.90
51500;DHT22;39101;53.478;6.158;2023-02-22T09:24:45;7.60;99.90
51500;DHT22;39101;53.478;6.158;2023-02-22T09:27:10;7.60;99.90
51500;DHT22;39101;53.478;6.158;2023-02-22T09:29:38;7.60;99.90
51500;DHT22;39101;53.478;6.158;2023-02-22T09:32:05;7.70;99.90
51500;DHT22;39101;53.478;6.158;2023-02-22T09:34:31;7.70;99.90
51500;DHT22;39101;53.478;6.158;2023-02-22T09:37:00;7.70;99.90
51500;DHT22;39101;53.478;6.158;2023-02-22T09:39:25;7.70;99.90
51500;DHT22;39101;53.478;6.158;2023-02-22T09:42:13;7.80;99.90
51500;DHT22;39101;53.478;6.158;2023-02-22T09:45:06;7.90;99.90
51500;DHT22;39101;53.478;6.158;2023-02-22T09:47:55;7.90;99.90
51500;DHT22;39101;53.478;6.158;2023-02-22T09:50:25;8.00;99.90
51500;DHT22;39101;53.478;6.158;2023-02-22T09:53:11;8.10;99.90
51500;DHT22;39101;53.478;6.158;2023-02-22T09:55:48;8.10;99.90
51500;DHT22;39101;53.478;6.158;2023-02-22T09:58:25;8.10;99.90
51500;DHT22;39101;53.478;6.158;2023-02-22T10:00:57;8.10;99.90
51500;DHT22;39101;53.478;6.158;2023-02-22T10:03:32;8.10;99.90
51500;DHT22;39101;53.478;6.158;2023-02-22T10:06:10;8.00;99.90
51500;DHT22;39101;53.478;6.158;2023-02-22T10:08:37;8.00;99.90
51500;DHT22;39101;53.478;6.158;2023-02-22T10:16:37;8.20;99.90
51500;DHT22;39101;53.478;6.158;2023-02-22T10:27:37;8.30;99.90
51500;DHT22;39101;53.478;6.158;2023-02-22T10:30:49;8.30;99.90
51500;DHT22;39101;53.478;6.158;2023-02-22T10:33:22;8.40;99.90
51500;DHT22;39101;53.478;6.158;2023-02-22T10:35:48;8.30;99.90
51500;DHT22;39101;53.478;6.158;2023-02-22T10:38:32;8.30;99.90
51500;DHT22;39101;53.478;6.158;2023-02-22T10:43:29;8.30;99.90
51500;DHT22;39101;53.478;6.158;2023-02-22T10:45:58;8.30;99.90
51500;DHT22;39101;53.478;6.158;2023-02-22T10:48:26;8.30;99.90
51500;DHT22;39101;53.478;6.158;2023-02-22T10:50:58;8.30;99.90
51500;DHT22;39101;53.478;6.158;2023-02-22T10:53:28;8.30;99.90
51500;DHT22;39101;53.478;6.158;2023-02-22T10:56:18;8.40;99.90
51500;DHT22;39101;53.478;6.158;2023-02-22T10:58:52;8.40;99.90
51500;DHT22;39101;53.478;6.158;2023-02-22T11:04:19;8.50;99.90
51500;DHT22;39101;53.478;6.158;2023-02-22T11:07:27;8.50;99.90
51500;DHT22;39101;53.478;6.158;2023-02-22T11:10:01;8.60;99.90
51500;DHT22;39101;53.478;6.158;2023-02-22T11:15:24;8.60;99.90
51500;DHT22;39101;53.478;6.158;2023-02-22T11:21:10;8.60;99.90
51500;DHT22;39101;53.478;6.158;2023-02-22T11:23:40;8.60;99.90
51500;DHT22;39101;53.478;6.158;2023-02-22T11:26:09;8.70;99.90
51500;DHT22;39101;53.478;6.158;2023-02-22T11:28:51;8.70;99.90
51500;DHT22;39101;53.478;6.158;2023-02-22T11:31:23;8.80;99.90
51500;DHT22;39101;53.478;6.158;2023-02-22T11:41:49;8.90;99.90
51500;DHT22;39101;53.478;6.158;2023-02-22T11:46:48;8.90;99.90
51500;DHT22;39101;53.478;6.158;2023-02-22T11:49:14;8.90;99.90
51500;DHT22;39101;53.478;6.158;2023-02-22T11:55:12;9.00;99.90
51500;DHT22;39101;53.478;6.158;2023-02-22T12:00:56;9.00;99.90
51500;DHT22;39101;53.478;6.158;2023-02-22T12:12:11;9.20;99.90
51500;DHT22;39101;53.478;6.158;2023-02-22T12:20:02;9.30;99.90
51500;DHT22;39101;53.478;6.158;2023-02-22T12:22:34;9.40;99.90
51500;DHT22;39101;53.478;6.158;2023-02-22T12:27:55;9.40;99.90
51500;DHT22;39101;53.478;6.158;2023-02-22T12:30:28;9.40;99.90
51500;DHT22;39101;53.478;6.158;2023-02-22T12:33:08;9.40;99.90
51500;DHT22;39101;53.478;6.158;2023-02-22T12:35:39;9.50;99.90
51500;DHT22;39101;53.478;6.158;2023-02-22T12:46:17;9.60;99.90
51500;DHT22;39101;53.478;6.158;2023-02-22T12:49:03;9.60;99.90
51500;DHT22;39101;53.478;6.158;2023-02-22T12:57:05;9.30;99.90
51500;DHT22;39101;53.478;6.158;2023-02-22T12:59:41;9.30;99.90
51500;DHT22;39101;53.478;6.158;2023-02-22T13:02:17;9.40;99.90
51500;DHT22;39101;53.478;6.158;2023-02-22T13:04:44;9.30;99.90
51500;DHT22;39101;53.478;6.158;2023-02-22T13:15:53;9.30;99.90
51500;DHT22;39101;53.478;6.158;2023-02-22T13:21:50;9.40;99.90
51500;DHT22;39101;53.478;6.158;2023-02-22T13:29:33;9.50;99.90
51500;DHT22;39101;53.478;6.158;2023-02-22T13:48:10;9.20;99.90
51500;DHT22;39101;53.478;6.158;2023-02-22T13:53:16;9.10;99.90
51500;DHT22;39101;53.478;6.158;2023-02-22T13:55:50;9.20;99.90
51500;DHT22;39101;53.478;6.158;2023-02-22T13:58:18;9.20;99.90
51500;DHT22;39101;53.478;6.158;2023-02-22T14:03:38;9.20;99.90
51500;DHT22;39101;53.478;6.158;2023-02-22T14:06:34;9.20;99.90
51500;DHT22;39101;53.478;6.158;2023-02-22T14:08:58;9.00;99.90
51500;DHT22;39101;53.478;6.158;2023-02-22T14:16:31;9.10;99.90
51500;DHT22;39101;53.478;6.158;2023-02-22T14:19:18;9.20;99.90
51500;DHT22;39101;53.478;6.158;2023-02-22T14:21:59;9.10;99.90
51500;DHT22;39101;53.478;6.158;2023-02-22T14:24:50;9.10;99.90
51500;DHT22;39101;53.478;6.158;2023-02-22T14:27:15;9.10;99.90
51500;DHT22;39101;53.478;6.158;2023-02-22T14:30:00;8.90;99.90
51500;DHT22;39101;53.478;6.158;2023-02-22T14:32:33;8.80;99.90
51500;DHT22;39101;53.478;6.158;2023-02-22T14:35:05;8.90;99.90
51500;DHT22;39101;53.478;6.158;2023-02-22T14:37:37;8.90;99.90
51500;DHT22;39101;53.478;6.158;2023-02-22T14:40:07;8.90;99.90
51500;DHT22;39101;53.478;6.158;2023-02-22T14:42:48;9.00;99.90
51500;DHT22;39101;53.478;6.158;2023-02-22T14:45:33;9.00;99.90
51500;DHT22;39101;53.478;6.158;2023-02-22T14:48:39;9.10;99.90
51500;DHT22;39101;53.478;6.158;2023-02-22T14:54:14;9.10;99.90
51500;DHT22;39101;53.478;6.158;2023-02-22T14:57:19;9.10;99.90
51500;DHT22;39101;53.478;6.158;2023-02-22T15:02:19;9.00;99.90
51500;DHT22;39101;53.478;6.158;2023-02-22T15:04:51;9.00;99.90
51500;DHT22;39101;53.478;6.158;2023-02-22T15:07:27;8.90;99.90
51500;DHT22;39101;53.478;6.158;2023-02-22T15:10:16;8.90;99.90
51500;DHT22;39101;53.478;6.158;2023-02-22T15:13:03;8.90;99.90
51500;DHT22;39101;53.478;6.158;2023-02-22T15:15:48;8.90;99.90
51500;DHT22;39101;53.478;6.158;2023-02-22T15:18:59;8.80;99.90
51500;DHT22;39101;53.478;6.158;2023-02-22T15:21:24;8.80;99.90
51500;DHT22;39101;53.478;6.158;2023-02-22T15:24:17;8.80;99.90
51500;DHT22;39101;53.478;6.158;2023-02-22T15:26:43;8.80;99.90
51500;DHT22;39101;53.478;6.158;2023-02-22T15:29:22;8.80;99.90
51500;DHT22;39101;53.478;6.158;2023-02-22T15:31:50;8.70;99.90
51500;DHT22;39101;53.478;6.158;2023-02-22T15:34:32;8.80;99.90
51500;DHT22;39101;53.478;6.158;2023-02-22T15:37:19;8.70;99.90
51500;DHT22;39101;53.478;6.158;2023-02-22T15:39:50;8.80;99.90
51500;DHT22;39101;53.478;6.158;2023-02-22T15:42:26;8.70;99.90
51500;DHT22;39101;53.478;6.158;2023-02-22T15:44:53;8.80;99.90
51500;DHT22;39101;53.478;6.158;2023-02-22T15:47:26;8.70;99.90
51500;DHT22;39101;53.478;6.158;2023-02-22T15:50:17;8.70;99.90
51500;DHT22;39101;53.478;6.158;2023-02-22T15:53:21;8.70;99.90
51500;DHT22;39101;53.478;6.158;2023-02-22T15:55:57;8.70;99.90
51500;DHT22;39101;53.478;6.158;2023-02-22T15:58:25;8.50;99.90
51500;DHT22;39101;53.478;6.158;2023-02-22T16:01:00;8.60;99.90
51500;DHT22;39101;53.478;6.158;2023-02-22T16:03:30;8.60;99.90
51500;DHT22;39101;53.478;6.158;2023-02-22T16:06:00;8.60;99.90
51500;DHT22;39101;53.478;6.158;2023-02-22T16:08:43;8.60;99.90
51500;DHT22;39101;53.478;6.158;2023-02-22T16:11:24;8.60;99.90
51500;DHT22;39101;53.478;6.158;2023-02-22T16:16:48;8.50;99.90
51500;DHT22;39101;53.478;6.158;2023-02-22T16:19:30;8.50;99.90
51500;DHT22;39101;53.478;6.158;2023-02-22T16:22:01;8.50;99.90
51500;DHT22;39101;53.478;6.158;2023-02-22T16:24:35;8.50;99.90
51500;DHT22;39101;53.478;6.158;2023-02-22T16:29:39;8.40;99.90
51500;DHT22;39101;53.478;6.158;2023-02-22T16:32:06;8.30;99.90
51500;DHT22;39101;53.478;6.158;2023-02-22T16:34:31;8.40;99.90
51500;DHT22;39101;53.478;6.158;2023-02-22T16:37:00;8.30;99.90
51500;DHT22;39101;53.478;6.158;2023-02-22T16:39:28;8.30;99.90
51500;DHT22;39101;53.478;6.158;2023-02-22T16:41:56;8.20;99.90
51500;DHT22;39101;53.478;6.158;2023-02-22T16:44:24;8.20;99.90
51500;DHT22;39101;53.478;6.158;2023-02-22T16:47:20;8.10;99.90
51500;DHT22;39101;53.478;6.158;2023-02-22T16:49:49;8.10;99.90
51500;DHT22;39101;53.478;6.158;2023-02-22T16:52:17;7.90;99.90
51500;DHT22;39101;53.478;6.158;2023-02-22T16:54:44;7.90;99.90
51500;DHT22;39101;53.478;6.158;2023-02-22T16:57:22;7.90;99.90
51500;DHT22;39101;53.478;6.158;2023-02-22T16:59:49;7.90;99.90
51500;DHT22;39101;53.478;6.158;2023-02-22T17:02:19;7.90;99.90
51500;DHT22;39101;53.478;6.158;2023-02-22T17:04:48;7.90;99.90
51500;DHT22;39101;53.478;6.158;2023-02-22T17:07:20;7.90;99.90
51500;DHT22;39101;53.478;6.158;2023-02-22T17:09:57;8.20;99.90
51500;DHT22;39101;53.478;6.158;2023-02-22T17:12:24;7.90;99.90
51500;DHT22;39101;53.478;6.158;2023-02-22T17:14:50;7.90;99.90
51500;DHT22;39101;53.478;6.158;2023-02-22T17:17:16;8.00;99.90
51500;DHT22;39101;53.478;6.158;2023-02-22T17:19:42;7.90;99.90
51500;DHT22;39101;53.478;6.158;2023-02-22T17:22:21;7.80;99.90
51500;DHT22;39101;53.478;6.158;2023-02-22T17:24:47;7.90;99.90
51500;DHT22;39101;53.478;6.158;2023-02-22T17:27:13;7.80;99.90
51500;DHT22;39101;53.478;6.158;2023-02-22T17:29:39;7.80;99.90
51500;DHT22;39101;53.478;6.158;2023-02-22T17:32:06;7.70;99.90
51500;DHT22;39101;53.478;6.158;2023-02-22T17:34:32;7.70;99.90
51500;DHT22;39101;53.478;6.158;2023-02-22T17:36:58;7.70;99.90
51500;DHT22;39101;53.478;6.158;2023-02-22T17:39:24;7.70;99.90
51500;DHT22;39101;53.478;6.158;2023-02-22T17:41:52;7.70;99.90
51500;DHT22;39101;53.478;6.158;2023-02-22T17:44:23;7.70;99.90
51500;DHT22;39101;53.478;6.158;2023-02-22T17:46:49;7.70;99.90
51500;DHT22;39101;53.478;6.158;2023-02-22T17:49:14;7.60;99.90
51500;DHT22;39101;53.478;6.158;2023-02-22T17:51:40;7.70;99.90
51500;DHT22;39101;53.478;6.158;2023-02-22T17:54:06;7.70;99.90
51500;DHT22;39101;53.478;6.158;2023-02-22T17:56:32;7.70;99.90
51500;DHT22;39101;53.478;6.158;2023-02-22T17:58:58;7.60;99.90
51500;DHT22;39101;53.478;6.158;2023-02-22T18:01:29;7.60;99.90
51500;DHT22;39101;53.478;6.158;2023-02-22T18:03:59;7.60;99.90
51500;DHT22;39101;53.478;6.158;2023-02-22T18:06:26;7.50;99.90
51500;DHT22;39101;53.478;6.158;2023-02-22T18:08:55;7.60;99.90
51500;DHT22;39101;53.478;6.158;2023-02-22T18:11:21;7.50;99.90
51500;DHT22;39101;53.478;6.158;2023-02-22T18:13:54;7.50;99.90
51500;DHT22;39101;53.478;6.158;2023-02-22T18:16:21;7.50;99.90
51500;DHT22;39101;53.478;6.158;2023-02-22T18:18:46;7.40;99.90
51500;DHT22;39101;53.478;6.158;2023-02-22T18:21:13;7.50;99.90
51500;DHT22;39101;53.478;6.158;2023-02-22T18:23:40;7.40;99.90
51500;DHT22;39101;53.478;6.158;2023-02-22T18:26:06;7.40;99.90
51500;DHT22;39101;53.478;6.158;2023-02-22T18:28:31;7.40;99.90
51500;DHT22;39101;53.478;6.158;2023-02-22T18:30:57;7.30;99.90
51500;DHT22;39101;53.478;6.158;2023-02-22T18:33:24;7.50;99.90
51500;DHT22;39101;53.478;6.158;2023-02-22T18:35:50;7.40;99.90
51500;DHT22;39101;53.478;6.158;2023-02-22T18:38:20;7.40;99.90
51500;DHT22;39101;53.478;6.158;2023-02-22T18:41:04;7.40;99.90
51500;DHT22;39101;53.478;6.158;2023-02-22T18:43:30;7.40;99.90
51500;DHT22;39101;53.478;6.158;2023-02-22T18:46:12;7.40;99.90
51500;DHT22;39101;53.478;6.158;2023-02-22T18:48:38;7.40;99.90
51500;DHT22;39101;53.478;6.158;2023-02-22T18:51:06;7.40;99.90
51500;DHT22;39101;53.478;6.158;2023-02-22T18:53:32;7.40;99.90
51500;DHT22;39101;53.478;6.158;2023-02-22T18:56:11;7.40;99.90
51500;DHT22;39101;53.478;6.158;2023-02-22T18:58:38;7.30;99.90